»·PEaware :: AAL2005 KMRY-KBOI

AAL2005 :: KMRY-KBOI

FLIGHT INFORMATION

Flight Status: Arrived
Operator:
American Airlines
More flights by this operator :: More flights under this callsign
Pilot: Will K. (13011)
Aircraft: Unknown
(B788)
More flights by this aircraft type
Origin: KMRY Monterey Peninsula
United States
Destination: KBOI Boise Air Terminal/Gowen
United States
More flights between these airports :: More routes between these airports
Route: MRY4 SJC V334 SAC V6 FMG NEERO SADYL3
File this flight plan on PilotEdge
Remarks:
Altitude:
(Current/Filed)
33,000ft
Speed:
(Current/Filed)
350kts
Departed: 09-Jul-18 05:34 PM
Arrived: 09-Jul-18 06:43 PM
Distance/Time
Traveled:
492nm/1:08
Distance/Time
To Go:
Arrived

Flight Plot

Page will automatically refresh every two minutes.

Flight plan parsing failed; only flown route is shown


Map Options




Map Legend


Flown Route
Filed Route
Departure Airport
Arrival Airport
Navaid (VOR, NDB)
Fix

Horizontal Profiles

Position Reports

Time Latitude Longitude Heading Altitude Ground
Speed
09-Jul-18 17:05 36.587657 -121.849910 238 218ft 0kts
09-Jul-18 17:06 36.587657 -121.849910 238 218ft 0kts
09-Jul-18 17:07 36.587657 -121.849910 238 218ft 0kts
09-Jul-18 17:08 36.587657 -121.849910 238 218ft 0kts
09-Jul-18 17:09 36.587657 -121.849910 238 218ft 0kts
09-Jul-18 17:10 36.587657 -121.849910 238 218ft 0kts
09-Jul-18 17:11 36.587657 -121.849910 238 218ft 0kts
09-Jul-18 17:12 36.587657 -121.849910 238 218ft 0kts
09-Jul-18 17:13 36.587657 -121.849910 238 218ft 0kts
09-Jul-18 17:14 36.587657 -121.849910 238 218ft 0kts
09-Jul-18 17:15 36.587657 -121.849910 238 218ft 0kts
09-Jul-18 17:16 36.587657 -121.849910 238 218ft 0kts
09-Jul-18 17:17 36.587657 -121.849910 238 218ft 0kts
09-Jul-18 17:18 36.587657 -121.849910 238 218ft 0kts
09-Jul-18 17:19 36.587657 -121.849910 238 218ft 0kts
09-Jul-18 17:20 36.587657 -121.849910 238 218ft 0kts
09-Jul-18 17:21 36.587657 -121.849910 238 218ft 0kts
09-Jul-18 17:22 36.587657 -121.849910 238 218ft 0kts
09-Jul-18 17:23 36.587745 -121.849729 238 218ft 2kts
09-Jul-18 17:24 36.587917 -121.849376 238 218ft 0kts
09-Jul-18 17:25 36.587916 -121.849380 238 218ft 0kts
09-Jul-18 17:26 36.587914 -121.849383 238 218ft 0kts
09-Jul-18 17:27 36.587912 -121.849386 238 218ft 0kts
09-Jul-18 17:28 36.587895 -121.849464 259 218ft 2kts
09-Jul-18 17:29 36.587735 -121.849784 111 218ft 4kts
09-Jul-18 17:30 36.586354 -121.845326 114 218ft 18kts
09-Jul-18 17:31 36.584154 -121.838852 113 218ft 21kts
09-Jul-18 17:32 36.582939 -121.835134 104 218ft 0kts
09-Jul-18 17:33 36.582855 -121.834189 88 218ft 9kts
09-Jul-18 17:34 36.583429 -121.833884 295 218ft 16kts
09-Jul-18 17:35 36.599289 -121.878139 301 1805ft 192kts
09-Jul-18 17:36 36.643079 -121.903283 349 5545ft 171kts
09-Jul-18 17:37 36.691378 -121.912634 5 8478ft 210kts
09-Jul-18 17:38 36.760989 -121.905927 356 10482ft 290kts
09-Jul-18 17:39 36.852630 -121.910999 355 12381ft 360kts
09-Jul-18 17:40 36.957255 -121.917694 355 15133ft 387kts
09-Jul-18 17:41 37.067916 -121.924806 355 17746ft 409kts
09-Jul-18 17:42 37.184656 -121.932347 355 20215ft 428kts
09-Jul-18 17:43 37.305801 -121.940148 356 22409ft 444kts
09-Jul-18 17:44 37.430078 -121.912786 19 24359ft 462kts
09-Jul-18 17:45 37.547685 -121.841082 33 26113ft 476kts
09-Jul-18 17:46 37.657743 -121.744203 32 27678ft 489kts
09-Jul-18 17:47 37.772766 -121.648841 33 29247ft 500kts
09-Jul-18 17:48 37.890151 -121.550765 33 30795ft 511kts
09-Jul-18 17:49 38.010041 -121.450177 33 32398ft 522kts
09-Jul-18 17:50 38.131786 -121.347616 33 33022ft 525kts
09-Jul-18 17:51 38.253516 -121.244670 33 33026ft 528kts
09-Jul-18 17:52 38.376033 -121.140616 33 33031ft 529kts
09-Jul-18 17:53 38.498825 -121.035895 34 33050ft 531kts
09-Jul-18 17:54 38.621593 -120.930739 34 33098ft 531kts
09-Jul-18 17:55 38.744187 -120.825346 34 33165ft 532kts
09-Jul-18 17:56 38.867008 -120.719236 34 33199ft 532kts
09-Jul-18 17:57 39.010391 -120.594848 34 33264ft 533kts
09-Jul-18 17:58 39.112742 -120.505674 34 33323ft 533kts
09-Jul-18 17:59 39.235430 -120.398355 34 33361ft 534kts
09-Jul-18 18:00 39.358302 -120.290389 34 33363ft 534kts
09-Jul-18 18:01 39.480936 -120.182216 34 33346ft 534kts
09-Jul-18 18:02 39.604018 -120.073133 34 33346ft 535kts
09-Jul-18 18:03 39.726728 -119.963896 34 33272ft 535kts
09-Jul-18 18:04 39.849195 -119.854422 34 33234ft 535kts
09-Jul-18 18:05 39.972050 -119.744105 34 33230ft 535kts
09-Jul-18 18:06 40.094268 -119.633878 34 33179ft 536kts
09-Jul-18 18:07 40.216832 -119.522847 34 33166ft 536kts
09-Jul-18 18:08 40.339462 -119.411253 34 33150ft 537kts
09-Jul-18 18:09 40.462144 -119.299102 34 33137ft 538kts
09-Jul-18 18:10 40.585124 -119.186138 34 33139ft 539kts
09-Jul-18 18:11 40.707697 -119.073076 35 33137ft 539kts
09-Jul-18 18:12 40.830730 -118.959051 35 33127ft 540kts
09-Jul-18 18:13 40.953763 -118.844527 35 33130ft 540kts
09-Jul-18 18:14 41.076492 -118.729696 35 33139ft 540kts
09-Jul-18 18:15 41.199118 -118.614459 35 33115ft 541kts
09-Jul-18 18:16 41.321843 -118.498579 35 33117ft 541kts
09-Jul-18 18:17 41.444382 -118.382357 35 33118ft 541kts
09-Jul-18 18:18 41.566921 -118.265519 35 33096ft 542kts
09-Jul-18 18:19 41.689447 -118.148187 35 33099ft 542kts
09-Jul-18 18:20 41.812353 -118.030493 31 33078ft 541kts
09-Jul-18 18:21 41.954825 -117.980423 8 33087ft 534kts
09-Jul-18 18:22 42.099474 -117.930247 11 32923ft 535kts
09-Jul-18 18:23 42.243168 -117.882302 11 30990ft 525kts
09-Jul-18 18:24 42.382324 -117.832385 22 28930ft 512kts
09-Jul-18 18:25 42.497043 -117.723040 42 26988ft 500kts
09-Jul-18 18:26 42.584073 -117.579999 52 25191ft 481kts
09-Jul-18 18:27 42.667890 -117.441763 52 23426ft 468kts
09-Jul-18 18:28 42.748829 -117.306850 52 21714ft 452kts
09-Jul-18 18:29 42.821281 -117.184756 52 20177ft 444kts
09-Jul-18 18:30 42.902612 -117.046393 52 17929ft 426kts
09-Jul-18 18:31 42.975369 -116.922060 52 16045ft 412kts
09-Jul-18 18:32 43.045404 -116.802013 52 14321ft 389kts
09-Jul-18 18:33 43.110515 -116.691773 51 12819ft 358kts
09-Jul-18 18:34 43.170031 -116.590716 51 11589ft 320kts
09-Jul-18 18:35 43.226988 -116.499406 49 10371ft 313kts
09-Jul-18 18:36 43.282909 -116.411276 48 9511ft 286kts
09-Jul-18 18:37 43.332647 -116.332446 48 8502ft 272kts
09-Jul-18 18:38 43.377867 -116.251543 56 7357ft 265kts
09-Jul-18 18:39 43.417469 -116.167917 56 6255ft 258kts
09-Jul-18 18:40 43.456248 -116.089908 26 6129ft 234kts
09-Jul-18 18:41 43.506965 -116.117977 321 4742ft 193kts
09-Jul-18 18:42 43.543087 -116.161321 312 3579ft 158kts
09-Jul-18 18:43 43.561747 -116.212310 300 2847ft 113kts
09-Jul-18 18:44 43.567063 -116.223005 10 2847ft 9kts

Navigation Log

Ident Type
Flight plan parsing failed, navigation log unavailable